Time;durP1;ratioP1;P1;durP2;ratioP2;P2;SDS_P1;SDS_P2;PMS_P1;PMS_P2;Temp;Humidity;BMP_temperature;BMP_pressure;BME280_temperature;BME280_humidity;BME280_pressure;Samples;Min_cycle;Max_cycle;Signal;HPM_P1;HPM_P2
2023/01/17 00:00:12;;;;;;;16.42;10.10;;;;;;;3.80;69.61;93519.25;5146176;27;20053;-70
2023/01/17 00:02:37;;;;;;;17.50;11.10;;;;;;;3.87;69.42;93534.97;5111764;28;20039;-70
2023/01/17 00:10:32;;;;;;;11.85;7.25;;;;;;;3.70;70.21;93523.44;5111410;28;20030;-70
2023/01/17 00:13:00;;;;;;;13.38;7.68;;;;;;;3.72;69.43;93535.22;5094334;28;20417;-70
2023/01/17 00:15:27;;;;;;;12.52;7.88;;;;;;;3.79;69.44;93544.13;5111621;28;20042;-70
2023/01/17 00:17:52;;;;;;;14.13;7.82;;;;;;;3.96;69.09;93539.44;5128332;27;20035;-70
2023/01/17 00:26:04;;;;;;;13.48;7.70;;;;;;;4.01;69.23;93533.00;5091783;28;20054;-70
2023/01/17 01:35:16;;;;;;;12.05;7.07;;;;;;;3.72;71.03;93542.13;5088675;28;20093;-70
2023/01/17 01:37:42;;;;;;;14.82;8.35;;;;;;;3.71;70.59;93533.59;5093036;28;20447;-71
2023/01/17 01:40:08;;;;;;;13.55;8.10;;;;;;;3.77;70.62;93515.16;5110002;28;20016;-71
2023/01/17 01:42:34;;;;;;;13.80;7.82;;;;;;;3.83;70.41;93503.59;5110029;28;20477;-70
2023/01/17 01:44:59;;;;;;;14.07;8.20;;;;;;;3.67;71.05;93485.16;5092493;28;20031;-70
2023/01/17 01:47:33;;;;;;;11.35;7.07;;;;;;;3.73;71.11;93471.81;5110401;28;20039;-71
2023/01/17 01:49:59;;;;;;;12.40;7.18;;;;;;;3.79;70.77;93487.59;5091573;28;20028;-70
2023/01/17 01:52:24;;;;;;;11.85;6.82;;;;;;;3.79;70.72;93477.31;5092834;28;20084;-71
2023/01/17 01:55:01;;;;;;;13.77;8.32;;;;;;;3.63;71.13;93470.91;5092682;28;20042;-70
2023/01/17 01:57:31;;;;;;;15.32;8.23;;;;;;;3.53;71.85;93463.09;5092706;28;20035;-70
2023/01/17 02:00:02;;;;;;;11.70;7.70;;;;;;;3.70;71.30;93477.19;5092836;28;20039;-70
2023/01/17 02:02:28;;;;;;;16.50;9.60;;;;;;;3.69;71.33;93463.53;5075614;28;20558;-71
2023/01/17 02:04:53;;;;;;;22.52;11.52;;;;;;;3.71;71.16;93466.00;5092384;28;20040;-70
2023/01/17 02:07:31;;;;;;;18.77;10.85;;;;;;;3.76;71.03;93458.75;5109707;28;20034;-70
2023/01/17 02:09:57;;;;;;;15.25;8.63;;;;;;;3.67;71.20;93456.91;5110006;27;20059;-70
2023/01/17 02:12:22;;;;;;;15.20;8.52;;;;;;;3.66;71.75;93470.69;5091904;28;20063;-71
2023/01/17 02:14:47;;;;;;;14.68;8.45;;;;;;;3.77;71.52;93474.03;5109920;28;20038;-70
2023/01/17 02:17:23;;;;;;;14.68;8.57;;;;;;;3.80;71.20;93458.41;5090943;28;20031;-70
2023/01/17 02:20:07;;;;;;;18.15;10.27;;;;;;;3.82;70.78;93450.56;5093024;28;20489;-70
2023/01/17 02:22:51;;;;;;;13.88;7.95;;;;;;;3.88;70.40;93439.00;5109037;28;20443;-71
2023/01/17 02:25:39;;;;;;;12.13;7.30;;;;;;;3.86;70.18;93448.56;5109533;28;20036;-71
2023/01/17 02:28:18;;;;;;;13.02;7.75;;;;;;;3.75;70.32;93434.00;5109685;28;20481;-71
2023/01/17 02:31:17;;;;;;;13.70;7.70;;;;;;;3.69;70.10;93442.19;5109347;28;20035;-71
2023/01/17 02:33:45;;;;;;;13.48;8.18;;;;;;;3.54;70.35;93451.91;5105748;28;20051;-71
2023/01/17 02:36:25;;;;;;;13.57;8.05;;;;;;;3.54;70.86;93433.94;5091552;28;20092;-71
2023/01/17 02:38:56;;;;;;;14.70;8.45;;;;;;;3.45;71.78;93444.88;5091828;28;20424;-71
2023/01/17 02:41:32;;;;;;;15.45;8.18;;;;;;;3.51;71.98;93472.66;5091873;28;20036;-71
2023/01/17 02:43:58;;;;;;;12.38;7.90;;;;;;;3.48;72.06;93475.47;5093974;28;20031;-71
2023/01/17 02:46:23;;;;;;;14.38;7.78;;;;;;;3.56;71.65;93461.09;5090826;28;20439;-71
2023/01/17 02:48:48;;;;;;;11.80;7.82;;;;;;;3.54;71.55;93465.56;5109155;28;20394;-71
2023/01/17 02:51:37;;;;;;;15.63;8.18;;;;;;;3.33;72.73;93446.66;5092366;28;20042;-71
2023/01/17 02:54:12;;;;;;;15.02;10.85;;;;;;;3.38;72.73;93447.13;5107268;28;20492;-71
2023/01/17 02:56:53;;;;;;;14.63;9.45;;;;;;;3.43;72.47;93439.88;5110063;28;20039;-72
2023/01/17 02:59:51;;;;;;;13.52;8.13;;;;;;;3.54;72.68;93446.78;5109576;28;20043;-71
2023/01/17 03:02:16;;;;;;;16.83;10.23;;;;;;;3.57;72.68;93441.38;5108799;28;20725;-71
2023/01/17 03:04:51;;;;;;;16.00;9.05;;;;;;;3.49;72.68;93420.63;5108008;28;21029;-71
2023/01/17 03:07:19;;;;;;;13.75;8.75;;;;;;;3.55;72.72;93418.38;5075795;28;20034;-71
2023/01/17 03:09:45;;;;;;;15.73;8.95;;;;;;;3.48;72.65;93411.28;5092886;28;20131;-71
2023/01/17 03:12:11;;;;;;;14.20;8.27;;;;;;;3.54;72.82;93427.03;5090246;28;20031;-71
2023/01/17 03:14:37;;;;;;;16.58;9.65;;;;;;;3.39;72.75;93412.78;5108149;28;20672;-71
2023/01/17 03:17:02;;;;;;;13.00;7.97;;;;;;;3.38;73.40;93415.50;5109591;28;20512;-71
2023/01/17 03:19:28;;;;;;;14.82;8.77;;;;;;;3.35;73.50;93412.22;5075182;28;20024;-71
2023/01/17 03:21:54;;;;;;;14.35;9.00;;;;;;;3.36;74.02;93402.75;5092217;28;20035;-71
2023/01/17 03:24:19;;;;;;;15.57;8.20;;;;;;;3.31;73.97;93404.88;5107999;28;20036;-71
2023/01/17 03:26:46;;;;;;;14.48;8.98;;;;;;;3.37;74.43;93427.50;5090063;28;20382;-71
2023/01/17 03:29:12;;;;;;;13.55;8.18;;;;;;;3.38;74.49;93424.00;5109680;28;20043;-71
2023/01/17 03:31:37;;;;;;;15.23;8.68;;;;;;;3.38;74.81;93441.97;5110595;28;20064;-72
2023/01/17 03:34:03;;;;;;;13.93;8.25;;;;;;;3.39;74.81;93430.78;5106815;28;20023;-71
2023/01/17 03:36:28;;;;;;;15.65;8.68;;;;;;;3.39;74.49;93410.22;5092464;28;20023;-71
2023/01/17 03:38:54;;;;;;;16.13;8.82;;;;;;;3.19;75.17;93403.25;5108731;28;20168;-71
2023/01/17 03:41:19;;;;;;;17.58;9.35;;;;;;;3.19;75.71;93421.22;5109235;28;20062;-71
2023/01/17 03:43:45;;;;;;;15.13;8.88;;;;;;;3.30;75.41;93437.44;5108875;28;20100;-71
2023/01/17 03:46:18;;;;;;;14.27;9.02;;;;;;;3.17;75.93;93444.41;5107887;28;20067;-71
2023/01/17 03:48:43;;;;;;;18.55;11.15;;;;;;;3.23;75.30;93449.09;5090740;28;20135;-71
2023/01/17 03:51:09;;;;;;;16.05;9.93;;;;;;;3.33;75.41;93450.03;5072968;28;20036;-71
2023/01/17 03:53:34;;;;;;;18.70;11.77;;;;;;;3.37;75.29;93453.16;5090923;28;20428;-71
2023/01/17 03:56:00;;;;;;;17.52;11.23;;;;;;;3.07;76.22;93454.56;5107086;28;20039;-71
2023/01/17 03:58:25;;;;;;;21.25;11.85;;;;;;;2.91;76.86;93456.66;5074046;28;20089;-71
2023/01/17 04:00:51;;;;;;;17.85;10.60;;;;;;;2.77;77.32;93432.00;5107161;28;20035;-71
2023/01/17 04:03:16;;;;;;;16.70;10.15;;;;;;;2.83;76.91;93394.84;5076251;28;20035;-71
2023/01/17 04:05:41;;;;;;;16.85;9.38;;;;;;;3.13;76.80;93440.47;5111055;28;20036;-71
2023/01/17 04:08:07;;;;;;;16.83;9.65;;;;;;;3.17;76.46;93426.44;5110926;28;20473;-71
2023/01/17 04:10:32;;;;;;;17.42;10.50;;;;;;;3.07;76.88;93418.66;5110927;28;20658;-71
2023/01/17 04:12:58;;;;;;;13.75;9.27;;;;;;;3.05;77.09;93435.09;5076989;28;20100;-71
2023/01/17 04:15:23;;;;;;;21.25;11.95;;;;;;;2.91;77.86;93448.94;5110805;28;20032;-71
2023/01/17 04:17:49;;;;;;;21.20;12.98;;;;;;;3.13;77.24;93448.97;5093424;28;20061;-71
2023/01/17 04:20:17;;;;;;;61.55;34.88;;;;;;;3.03;77.27;93455.72;5110986;28;20051;-71
2023/01/17 04:22:43;;;;;;;55.42;34.50;;;;;;;3.18;76.58;93465.78;5077973;28;20462;-71
2023/01/17 04:25:08;;;;;;;28.42;17.42;;;;;;;3.14;77.13;93460.03;5112761;28;20527;-71
2023/01/17 04:27:34;;;;;;;22.13;12.85;;;;;;;3.32;76.23;93466.38;5111549;28;20032;-71
2023/01/17 04:29:59;;;;;;;18.55;11.00;;;;;;;3.34;75.89;93461.09;5111296;28;20516;-71
2023/01/17 04:32:25;;;;;;;17.40;10.75;;;;;;;3.23;76.05;93441.41;5111406;28;20405;-71
2023/01/17 04:34:50;;;;;;;20.45;11.35;;;;;;;3.39;75.81;93464.13;5112587;28;20035;-71
2023/01/17 04:37:15;;;;;;;20.05;11.35;;;;;;;3.40;75.80;93454.69;5111142;28;20032;-71
2023/01/17 04:39:41;;;;;;;16.20;9.45;;;;;;;3.52;75.70;93462.28;5112644;28;20031;-71
2023/01/17 04:42:06;;;;;;;14.45;8.45;;;;;;;3.59;75.21;93472.88;5107542;28;20039;-71
2023/01/17 04:44:32;;;;;;;15.10;9.25;;;;;;;3.53;75.42;93466.47;5124866;27;20036;-71
2023/01/17 04:46:57;;;;;;;16.98;9.40;;;;;;;3.44;75.51;93480.03;5093629;28;20036;-71
2023/01/17 04:49:23;;;;;;;18.30;11.35;;;;;;;3.42;75.39;93466.47;5094197;28;20485;-71
2023/01/17 04:51:48;;;;;;;14.00;8.45;;;;;;;3.49;75.55;93462.53;5090573;28;20028;-71
2023/01/17 04:54:14;;;;;;;22.30;12.55;;;;;;;3.55;75.37;93469.75;5091919;28;20035;-71
2023/01/17 04:56:39;;;;;;;19.00;12.52;;;;;;;3.53;75.14;93491.34;5090757;28;20092;-71
2023/01/17 04:59:04;;;;;;;19.40;13.15;;;;;;;3.49;75.11;93462.53;5073710;28;20494;-71
2023/01/17 05:01:30;;;;;;;16.35;10.98;;;;;;;3.54;74.79;93493.00;5076410;28;20406;-71
2023/01/17 05:03:55;;;;;;;18.20;11.02;;;;;;;3.57;74.58;93523.56;5094135;28;20027;-71
2023/01/17 05:06:21;;;;;;;18.25;10.90;;;;;;;3.41;74.62;93516.19;5112009;28;20036;-71
2023/01/17 05:08:46;;;;;;;16.63;9.77;;;;;;;3.44;74.66;93518.53;5110641;28;20035;-71
2023/01/17 05:11:12;;;;;;;13.68;9.23;;;;;;;3.52;74.06;93526.47;5093703;28;20039;-71
2023/01/17 05:13:37;;;;;;;15.68;10.13;;;;;;;3.49;74.50;93520.75;5093821;28;20027;-71
2023/01/17 05:16:03;;;;;;;18.38;10.68;;;;;;;3.44;74.41;93513.41;5093193;28;20024;-71
2023/01/17 05:18:29;;;;;;;18.90;10.75;;;;;;;3.34;75.33;93497.88;5110713;28;20072;-71
2023/01/17 05:21:00;;;;;;;16.60;9.43;;;;;;;3.31;75.39;93512.69;5110618;28;20062;-71
2023/01/17 05:23:25;;;;;;;;;;;;;;;3.32;75.47;93524.59;5094043;28;20032;-71
2023/01/17 05:25:51;;;;;;;15.23;8.85;;;;;;;3.25;75.64;93523.41;5093329;28;19924;-71
2023/01/17 05:28:16;;;;;;;17.38;10.45;;;;;;;3.23;76.35;93535.53;5092779;28;20047;-71
2023/01/17 05:30:42;;;;;;;16.33;10.02;;;;;;;3.27;76.14;93501.03;5110097;28;20630;-71
2023/01/17 05:33:08;;;;;;;14.68;8.80;;;;;;;3.33;76.02;93485.16;5127512;27;20465;-71
2023/01/17 05:35:35;;;;;;;15.27;8.88;;;;;;;3.42;75.57;93491.34;5093194;28;20059;-71
2023/01/17 05:38:01;;;;;;;14.80;8.88;;;;;;;3.31;76.01;93497.28;5093278;28;20035;-71
2023/01/17 05:40:28;;;;;;;12.73;8.18;;;;;;;3.27;76.39;93503.59;5093498;28;20110;-71
2023/01/17 05:42:55;;;;;;;12.45;7.95;;;;;;;3.40;76.16;93486.34;5110125;28;20031;-71
2023/01/17 05:45:21;;;;;;;12.57;7.63;;;;;;;3.43;75.88;93480.97;5090416;28;20059;-71
2023/01/17 05:47:48;;;;;;;15.75;8.48;;;;;;;3.36;75.86;93478.03;5092985;28;20092;-71
2023/01/17 05:50:15;;;;;;;16.00;9.60;;;;;;;3.26;75.61;93459.13;5110259;28;20552;-71
2023/01/17 05:52:47;;;;;;;40.13;21.52;;;;;;;3.23;75.80;93458.53;5093220;28;20073;-71
2023/01/17 05:55:12;;;;;;;32.83;18.00;;;;;;;3.35;75.81;93473.03;5110097;28;20127;-71
2023/01/17 05:57:37;;;;;;;38.05;23.40;;;;;;;3.40;75.41;93476.06;5111210;28;20073;-71
2023/01/17 06:00:03;;;;;;;33.00;18.23;;;;;;;3.52;74.85;93461.47;5109213;28;20046;-71
2023/01/17 06:02:29;;;;;;;29.08;15.60;;;;;;;3.36;74.93;93428.44;5111646;28;20031;-71
2023/01/17 06:04:54;;;;;;;15.30;9.23;;;;;;;3.41;75.19;93435.81;5092817;28;20036;-71
2023/01/17 06:07:20;;;;;;;16.75;12.45;;;;;;;3.38;75.88;93418.88;5089288;28;20028;-71
2023/01/17 06:09:45;;;;;;;13.20;8.45;;;;;;;3.47;75.76;93415.59;5099662;28;20039;-71
2023/01/17 06:12:11;;;;;;;41.25;22.27;;;;;;;3.49;75.73;93424.00;5109757;28;20085;-71
2023/01/17 06:14:36;;;;;;;95.80;48.40;;;;;;;3.65;75.29;93427.94;5091050;28;20028;-71
2023/01/17 06:17:02;;;;;;;58.60;33.30;;;;;;;3.65;74.38;93422.78;5104259;28;20405;-71
2023/01/17 06:19:28;;;;;;;39.40;24.00;;;;;;;3.69;74.45;93437.88;5109306;28;20050;-71
2023/01/17 06:21:54;;;;;;;37.00;22.80;;;;;;;3.77;74.22;93432.13;5091187;28;20031;-71
2023/01/17 06:24:19;;;;;;;18.70;11.45;;;;;;;3.84;73.95;93427.31;5091739;28;20230;-71
2023/01/17 06:26:45;;;;;;;16.58;9.30;;;;;;;3.83;74.13;93418.81;5092238;28;20043;-71
2023/01/17 06:29:11;;;;;;;15.85;8.00;;;;;;;3.89;74.31;93413.19;5090705;28;20055;-71
2023/01/17 06:31:36;;;;;;;13.90;8.32;;;;;;;3.85;73.96;93423.84;5113665;28;20031;-71
2023/01/17 06:34:02;;;;;;;11.38;7.03;;;;;;;3.91;74.41;93418.22;5096904;28;20036;-71
2023/01/17 06:36:28;;;;;;;6.82;4.63;;;;;;;4.05;76.16;93446.19;5108342;28;20027;-71
2023/01/17 06:38:54;;;;;;;6.45;4.32;;;;;;;4.26;74.76;93425.66;5092774;28;20476;-71
2023/01/17 06:41:19;;;;;;;8.45;4.07;;;;;;;4.46;73.80;93440.31;5109418;28;20027;-71
2023/01/17 06:43:45;;;;;;;6.07;4.32;;;;;;;4.69;73.35;93466.75;5092472;28;20095;-71
2023/01/17 06:46:10;;;;;;;9.43;6.00;;;;;;;4.81;73.33;93446.91;5126075;28;20035;-71
2023/01/17 06:48:35;;;;;;;5.72;3.85;;;;;;;4.91;72.60;93458.09;5109686;28;20028;-71
2023/01/17 06:51:01;;;;;;;5.97;3.50;;;;;;;5.24;71.28;93458.84;5091064;28;20035;-71
2023/01/17 06:53:26;;;;;;;4.75;2.85;;;;;;;5.56;69.72;93461.28;5109383;28;20085;-71
2023/01/17 06:55:56;;;;;;;4.75;3.10;;;;;;;5.76;69.38;93480.19;5108784;28;20043;-71
2023/01/17 06:58:22;;;;;;;4.78;2.90;;;;;;;5.97;68.85;93484.50;5109230;28;20043;-71
2023/01/17 07:00:47;;;;;;;5.00;2.67;;;;;;;6.18;67.53;93481.81;5111681;28;20510;-71
2023/01/17 07:03:23;;;;;;;4.85;3.17;;;;;;;6.33;67.86;93461.66;5115514;27;20023;-71
2023/01/17 07:05:49;;;;;;;4.18;3.00;;;;;;;6.47;67.34;93471.56;5137719;27;20049;-71
2023/01/17 07:08:15;;;;;;;4.03;2.35;;;;;;;6.61;66.86;93471.16;5105555;27;20019;-71
2023/01/17 07:10:44;;;;;;;3.97;2.35;;;;;;;6.88;66.76;93490.28;5104599;27;20029;-71
2023/01/17 07:13:10;;;;;;;6.35;3.33;;;;;;;6.94;66.44;93502.69;5120034;27;20023;-71
2023/01/17 07:15:36;;;;;;;6.38;4.80;;;;;;;6.96;66.79;93498.16;5115217;27;20020;-71
2023/01/17 07:18:02;;;;;;;12.98;10.77;;;;;;;6.90;66.73;93498.72;5111320;28;20063;-70
2023/01/17 07:20:27;;;;;;;9.88;7.07;;;;;;;6.96;66.84;93503.31;5091703;28;20038;-70
2023/01/17 07:22:53;;;;;;;8.40;6.97;;;;;;;7.06;66.32;93504.16;5112735;28;20027;-73
2023/01/17 07:25:19;;;;;;;7.90;5.05;;;;;;;7.06;66.46;93493.00;5094377;27;20031;-72
2023/01/17 07:27:45;;;;;;;6.10;3.67;;;;;;;7.14;66.52;93512.03;5109213;28;20047;-73
2023/01/17 07:30:11;;;;;;;7.18;4.13;;;;;;;6.95;67.26;93517.19;5109327;28;20556;-72
2023/01/17 07:32:37;;;;;;;8.07;5.20;;;;;;;6.89;67.08;93491.94;5092192;28;20034;-73
2023/01/17 07:35:03;;;;;;;8.70;5.50;;;;;;;7.00;66.47;93490.97;5109891;28;20059;-73
2023/01/17 07:37:29;;;;;;;11.43;7.75;;;;;;;7.04;67.27;93505.22;5111901;27;20032;-72
2023/01/17 07:39:54;;;;;;;6.50;3.63;;;;;;;7.02;66.97;93528.63;5078477;28;20449;-71
2023/01/17 07:42:20;;;;;;;8.20;5.28;;;;;;;6.96;67.03;93531.72;5111989;27;20092;-71
2023/01/17 07:44:46;;;;;;;8.77;5.03;;;;;;;7.06;66.68;93516.25;5128083;27;20118;-72
2023/01/17 07:47:11;;;;;;;7.45;5.55;;;;;;;7.07;66.22;93521.25;5113044;28;20036;-72
2023/01/17 07:49:37;;;;;;;9.05;5.55;;;;;;;7.04;65.80;93500.88;5095332;28;20031;-71
2023/01/17 07:52:03;;;;;;;8.40;5.72;;;;;;;7.04;66.84;93531.88;5111991;28;20032;-72
2023/01/17 07:54:28;;;;;;;7.03;4.53;;;;;;;7.04;66.93;93498.28;5095000;28;20027;-71
2023/01/17 07:56:54;;;;;;;11.93;6.85;;;;;;;6.99;65.87;93482.41;5078098;28;20039;-72
2023/01/17 07:59:19;;;;;;;9.50;6.20;;;;;;;7.22;65.74;93497.63;5092594;28;20039;-71
2023/01/17 08:01:45;;;;;;;13.98;9.48;;;;;;;7.20;66.34;93504.69;5111945;28;20524;-71
2023/01/17 08:04:10;;;;;;;8.15;5.18;;;;;;;7.20;66.26;93502.91;5109737;28;20459;-72
2023/01/17 08:06:36;;;;;;;8.32;5.00;;;;;;;7.07;65.63;93500.59;5092054;28;20522;-72
2023/01/17 08:09:05;;;;;;;24.83;11.15;;;;;;;7.22;65.38;93487.28;5092382;28;20086;-74
2023/01/17 08:11:30;;;;;;;56.88;17.83;;;;;;;7.25;64.91;93490.41;5141576;27;20087;-73
2023/01/17 08:13:58;;;;;;;30.63;10.30;;;;;;;7.26;65.45;93511.88;5109606;28;20528;-73
2023/01/17 08:16:23;;;;;;;31.83;11.52;;;;;;;7.24;65.35;93518.94;5110572;28;20038;-73
2023/01/17 08:18:49;;;;;;;10.90;5.80;;;;;;;7.13;66.07;93525.91;5094695;28;20036;-73
2023/01/17 08:21:15;;;;;;;6.75;4.55;;;;;;;7.21;66.20;93526.97;5097572;28;20027;-73
2023/01/17 08:23:50;;;;;;;75.40;27.40;;;;;;;7.26;65.72;93519.63;5111928;28;20233;-73
2023/01/17 08:26:23;;;;;;;24.83;10.65;;;;;;;7.30;65.25;93505.47;5095331;28;20032;-73
2023/01/17 08:28:53;;;;;;;25.48;10.85;;;;;;;7.41;65.55;93526.00;5095598;28;20052;-72
2023/01/17 08:31:19;;;;;;;10.55;5.65;;;;;;;7.46;65.49;93544.47;5095000;28;20035;-71
2023/01/17 08:33:45;;;;;;;7.45;4.57;;;;;;;7.30;65.59;93532.13;5094540;28;20023;-70
2023/01/17 08:36:10;;;;;;;7.05;4.47;;;;;;;7.30;65.50;93541.63;5094653;28;20498;-70
2023/01/17 08:38:36;;;;;;;10.00;5.90;;;;;;;7.50;64.77;93538.06;5094787;28;20027;-70
2023/01/17 08:41:01;;;;;;;7.40;4.60;;;;;;;7.30;66.28;93526.97;5111664;28;20032;-70
2023/01/17 08:43:27;;;;;;;7.38;4.47;;;;;;;7.56;65.38;93529.75;5077524;28;20027;-70
2023/01/17 08:45:54;;;;;;;9.98;5.80;;;;;;;7.66;65.87;93563.34;5094439;28;20034;-70
2023/01/17 08:48:23;;;;;;;8.68;5.13;;;;;;;7.69;64.65;93562.22;5112520;28;20027;-70
2023/01/17 08:50:49;;;;;;;12.02;6.20;;;;;;;7.67;64.14;93543.47;5111407;28;20023;-70
2023/01/17 08:53:15;;;;;;;4.82;2.88;;;;;;;7.83;64.05;93534.16;5111262;28;20496;-70
2023/01/17 08:55:40;;;;;;;6.80;4.15;;;;;;;7.96;64.27;93527.84;5111285;28;20020;-70
2023/01/17 08:58:06;;;;;;;11.65;6.18;;;;;;;8.05;64.26;93535.59;5111209;28;20038;-70
2023/01/17 09:00:32;;;;;;;8.43;5.90;;;;;;;8.11;64.32;93535.94;5111357;28;20473;-70
2023/01/17 09:02:58;;;;;;;7.38;4.80;;;;;;;8.24;64.98;93547.59;5112325;28;20416;-70
2023/01/17 09:05:24;;;;;;;5.32;3.60;;;;;;;8.20;64.52;93545.47;5112728;28;20500;-70
2023/01/17 09:07:49;;;;;;;6.78;4.53;;;;;;;8.16;64.77;93544.09;5094019;28;20032;-70
2023/01/17 09:10:15;;;;;;;11.80;9.00;;;;;;;8.14;63.75;93523.56;5077120;28;20433;-70
2023/01/17 09:12:40;;;;;;;9.02;5.43;;;;;;;8.09;64.36;93512.03;5112645;28;20455;-71
2023/01/17 09:15:06;;;;;;;9.07;5.72;;;;;;;8.29;64.42;93529.06;5112093;28;20032;-70
2023/01/17 09:17:32;;;;;;;6.05;4.10;;;;;;;8.32;64.41;93536.53;5094194;28;20050;-70
2023/01/17 09:19:58;;;;;;;28.70;18.50;;;;;;;8.25;64.89;93522.56;5110749;28;20027;-70
2023/01/17 09:22:26;;;;;;;8.73;6.15;;;;;;;8.19;65.57;93508.44;5111948;28;20528;-70
2023/01/17 09:24:52;;;;;;;9.90;6.65;;;;;;;8.20;65.61;93541.09;5110598;28;20044;-70
2023/01/17 09:27:19;;;;;;;8.55;5.18;;;;;;;8.26;65.51;93530.16;5110897;28;20023;-70
2023/01/17 09:29:45;;;;;;;6.95;5.28;;;;;;;8.26;65.75;93529.34;5110489;28;20513;-70
2023/01/17 09:32:10;;;;;;;7.82;6.22;;;;;;;8.27;65.51;93529.22;5112179;28;20028;-70
2023/01/17 09:34:35;;;;;;;7.03;4.88;;;;;;;8.17;65.53;93515.50;5110497;28;20035;-70
2023/01/17 09:37:01;;;;;;;6.55;4.40;;;;;;;8.31;65.85;93505.66;5110069;28;20398;-70
2023/01/17 09:39:26;;;;;;;8.52;5.20;;;;;;;8.45;65.80;93523.28;5109575;28;20031;-70
2023/01/17 09:41:57;;;;;;;9.65;6.00;;;;;;;8.42;65.22;93513.25;5110511;28;20035;-70
2023/01/17 09:44:29;;;;;;;16.85;8.48;;;;;;;8.42;65.08;93514.03;5110282;28;20028;-70
2023/01/17 09:47:01;;;;;;;13.23;6.72;;;;;;;8.39;63.07;93492.81;5111890;28;20027;-70
2023/01/17 09:49:44;;;;;;;12.27;7.68;;;;;;;8.43;62.85;93470.84;5076643;28;20072;-70
2023/01/17 09:52:14;;;;;;;12.82;6.07;;;;;;;8.64;61.64;93486.13;5110406;28;20039;-70
2023/01/17 09:54:41;;;;;;;8.98;5.72;;;;;;;8.79;61.48;93483.81;5110304;28;20088;-70
2023/01/17 09:57:30;;;;;;;16.08;7.70;;;;;;;8.94;62.11;93493.50;5110322;28;20027;-70
2023/01/17 10:00:29;;;;;;;11.93;6.15;;;;;;;8.94;61.23;93482.31;5111354;28;20421;-70
2023/01/17 10:03:04;;;;;;;7.05;3.90;;;;;;;8.97;61.52;93504.50;5110303;28;20180;-70
2023/01/17 10:05:42;;;;;;;8.50;4.75;;;;;;;8.96;61.73;93511.47;5111413;28;20030;-70
2023/01/17 10:08:19;;;;;;;12.35;7.65;;;;;;;9.08;61.19;93501.69;5111283;28;20069;-70
2023/01/17 10:10:53;;;;;;;31.42;17.92;;;;;;;9.15;60.85;93511.31;5110030;28;20031;-70
2023/01/17 10:13:47;;;;;;;17.33;9.57;;;;;;;9.24;60.32;93508.78;5110161;28;20039;-70
2023/01/17 10:16:21;;;;;;;14.30;8.73;;;;;;;9.20;60.28;93505.69;5110037;28;20634;-70
2023/01/17 10:18:59;;;;;;;21.10;11.35;;;;;;;9.28;60.62;93504.94;5111160;28;20063;-70
2023/01/17 10:21:49;;;;;;;21.42;10.07;;;;;;;9.29;60.56;93502.19;5110095;28;20035;-70
2023/01/17 10:24:38;;;;;;;29.48;12.70;;;;;;;9.23;61.27;93505.38;5111420;28;20027;-70
2023/01/17 10:27:14;;;;;;;13.90;5.68;;;;;;;9.17;59.72;93491.25;5110007;28;20031;-70
2023/01/17 10:29:40;;;;;;;3.53;1.73;;;;;;;9.52;57.36;93486.13;5093837;28;20060;-70
2023/01/17 10:32:07;;;;;;;3.40;1.48;;;;;;;9.71;56.37;93480.75;5110069;28;20085;-70
2023/01/17 10:34:39;;;;;;;3.05;1.40;;;;;;;9.95;55.62;93482.66;5093502;28;20241;-70
2023/01/17 10:37:39;;;;;;;2.95;1.27;;;;;;;10.17;55.37;93507.25;5080704;28;20404;-70
2023/01/17 10:40:37;;;;;;;1.92;1.25;;;;;;;10.39;54.36;93500.69;5099516;28;20031;-70
2023/01/17 10:43:26;;;;;;;11.02;5.55;;;;;;;10.43;55.94;93542.72;5087071;28;20082;-70
2023/01/17 10:45:53;;;;;;;6.07;3.22;;;;;;;10.49;54.40;93522.13;5113802;28;20042;-70
2023/01/17 10:48:26;;;;;;;2.88;1.58;;;;;;;10.63;53.83;93510.31;5113743;28;20047;-70
2023/01/17 10:50:58;;;;;;;7.35;2.10;;;;;;;10.58;54.22;93499.59;5113570;28;20088;-70
2023/01/17 10:53:44;;;;;;;2.40;1.85;;;;;;;10.74;53.64;93519.59;5114870;28;20036;-70
2023/01/17 10:56:12;;;;;;;3.00;1.20;;;;;;;10.68;53.32;93499.47;5114984;28;20059;-70
2023/01/17 10:58:38;;;;;;;2.30;1.50;;;;;;;10.67;53.34;93493.47;5096627;28;20039;-70
2023/01/17 11:01:14;;;;;;;2.08;1.30;;;;;;;10.83;53.27;93502.25;5114811;28;20036;-70
2023/01/17 11:03:39;;;;;;;2.40;1.20;;;;;;;10.83;52.44;93489.25;5079887;28;20116;-70
2023/01/17 11:06:18;;;;;;;2.10;1.20;;;;;;;10.93;52.53;93493.31;5079434;28;20028;-69
2023/01/17 11:08:53;;;;;;;2.30;1.20;;;;;;;11.05;52.34;93493.81;5113288;28;20474;-70
2023/01/17 11:11:21;;;;;;;8.82;4.15;;;;;;;11.03;52.43;93480.19;5096847;28;20031;-70
2023/01/17 11:13:46;;;;;;;13.65;5.53;;;;;;;11.08;52.49;93471.88;5096259;28;20027;-70
2023/01/17 11:16:20;;;;;;;3.17;2.05;;;;;;;11.04;52.15;93463.63;5113105;28;20043;-69
2023/01/17 11:18:46;;;;;;;2.90;1.98;;;;;;;11.17;51.67;93476.09;5096160;28;20406;-70
2023/01/17 11:21:22;;;;;;;4.88;2.40;;;;;;;11.17;51.91;93474.34;5113128;28;20043;-70
2023/01/17 11:23:49;;;;;;;2.88;1.60;;;;;;;11.28;52.05;93470.59;5097075;28;20521;-70
2023/01/17 11:26:29;;;;;;;2.92;1.60;;;;;;;11.18;52.11;93462.16;5113011;28;20481;-70
2023/01/17 11:29:26;;;;;;;1.60;1.15;;;;;;;11.34;52.10;93458.72;5096381;28;20524;-70
2023/01/17 11:31:52;;;;;;;2.22;1.10;;;;;;;11.33;51.74;93444.91;5113993;28;20028;-70
2023/01/17 11:34:22;;;;;;;2.53;1.20;;;;;;;11.49;51.55;93438.88;5095843;28;20039;-70
2023/01/17 11:36:49;;;;;;;1.90;0.90;;;;;;;11.40;51.40;93437.28;5114357;28;20483;-70
2023/01/17 11:39:17;;;;;;;2.20;1.10;;;;;;;11.53;50.71;93445.38;5095715;28;20114;-70
2023/01/17 11:41:43;;;;;;;1.90;1.30;;;;;;;11.57;51.12;93443.25;5112677;28;20036;-70
2023/01/17 11:44:24;;;;;;;2.42;1.30;;;;;;;11.50;51.42;93431.88;5078783;28;20031;-70
2023/01/17 11:47:17;;;;;;;4.75;2.08;;;;;;;11.35;50.72;93397.94;5112310;28;20131;-70
2023/01/17 11:49:47;;;;;;;2.67;1.58;;;;;;;11.53;50.93;93427.19;5108637;28;20042;-70
2023/01/17 11:52:24;;;;;;;2.40;1.27;;;;;;;11.46;50.48;93415.81;5095884;28;20041;-70
2023/01/17 11:54:50;;;;;;;2.47;1.20;;;;;;;11.57;50.50;93412.84;5078706;28;20457;-70
2023/01/17 11:57:25;;;;;;;3.15;1.73;;;;;;;11.69;50.25;93409.88;5095765;28;20031;-70
2023/01/17 12:00:02;;;;;;;5.15;2.90;;;;;;;11.73;50.61;93411.16;5112320;28;20039;-70
2023/01/17 12:02:52;;;;;;;2.63;1.38;;;;;;;11.61;49.79;93388.13;5112568;28;20030;-70
2023/01/17 12:05:40;;;;;;;2.63;1.58;;;;;;;11.72;49.56;93412.16;5112414;28;20038;-70
2023/01/17 12:08:14;;;;;;;1.88;1.20;;;;;;;11.78;49.39;93388.91;5113412;28;20032;-70
2023/01/17 12:11:07;;;;;;;2.40;1.20;;;;;;;11.90;48.27;93391.16;5113890;28;20420;-69
2023/01/17 12:14:01;;;;;;;3.35;1.50;;;;;;;12.01;48.18;93396.78;5113345;28;20500;-69
2023/01/17 12:16:56;;;;;;;2.80;1.65;;;;;;;11.95;48.44;93388.81;5112094;28;20531;-69
2023/01/17 12:19:31;;;;;;;3.25;1.17;;;;;;;11.89;47.95;93376.50;5113217;28;20051;-69
2023/01/17 12:22:15;;;;;;;2.17;1.10;;;;;;;11.88;48.70;93365.28;5078716;28;20033;-69
2023/01/17 12:24:53;;;;;;;2.20;1.50;;;;;;;11.98;48.24;93373.72;5113296;28;20031;-69
2023/01/17 12:27:48;;;;;;;2.28;1.27;;;;;;;11.97;48.38;93376.47;5112091;28;20020;-70
2023/01/17 12:30:35;;;;;;;2.28;1.30;;;;;;;12.11;48.68;93385.34;5112875;28;20522;-69
2023/01/17 12:33:20;;;;;;;2.55;1.45;;;;;;;12.20;47.99;93371.28;5111627;28;20127;-69
2023/01/17 12:36:00;;;;;;;3.08;1.30;;;;;;;12.15;47.50;93376.22;5111682;28;20027;-69
2023/01/17 12:38:29;;;;;;;3.40;1.60;;;;;;;12.11;47.79;93374.94;5113110;28;20028;-69
2023/01/17 12:41:00;;;;;;;3.00;0.88;;;;;;;12.08;47.06;93352.66;5094804;28;20062;-69
2023/01/17 12:43:35;;;;;;;9.27;3.88;;;;;;;12.20;47.35;93343.50;5111421;28;20036;-70
2023/01/17 12:46:05;;;;;;;2.58;1.35;;;;;;;12.19;47.07;93351.47;5094920;28;20027;-69
2023/01/17 12:48:34;;;;;;;2.30;1.30;;;;;;;12.23;47.47;93360.53;5094686;28;20039;-70
2023/01/17 12:51:07;;;;;;;11.50;4.03;;;;;;;12.24;46.39;93341.34;5111342;28;20405;-69
2023/01/17 12:54:14;;;;;;;2.22;1.30;;;;;;;12.43;45.85;93351.31;5111289;28;20115;-69
2023/01/17 12:57:09;;;;;;;1.95;1.00;;;;;;;12.49;45.40;93355.00;5049467;28;20035;-69
2023/01/17 12:59:51;;;;;;;2.47;1.02;;;;;;;12.57;45.83;93333.31;5093872;28;20036;-69
2023/01/17 13:02:57;;;;;;;3.13;1.05;;;;;;;12.66;44.76;93347.88;5094272;28;20023;-69
2023/01/17 13:05:30;;;;;;;2.90;1.08;;;;;;;12.68;44.93;93338.09;5044452;28;20043;-70